sensor_id;sensor_type;location;lat;lon;timestamp;P1;durP1;ratioP1;P2;durP2;ratioP2
43429;SDS011;29028;43.234;27.896;2022-08-06T04:02:46;8.52;;;6.90;;
43429;SDS011;29028;43.234;27.896;2022-08-06T04:03:08;9.57;;;7.35;;
43429;SDS011;29028;43.234;27.896;2022-08-06T04:03:31;8.52;;;7.18;;
43429;SDS011;29028;43.234;27.896;2022-08-06T04:03:52;7.65;;;6.85;;
43429;SDS011;29028;43.234;27.896;2022-08-06T04:04:16;8.02;;;7.00;;
43429;SDS011;29028;43.234;27.896;2022-08-06T04:04:40;9.35;;;6.78;;
43429;SDS011;29028;43.234;27.896;2022-08-06T04:05:02;9.80;;;6.63;;
43429;SDS011;29028;43.234;27.896;2022-08-06T04:05:25;10.07;;;7.25;;
43429;SDS011;29028;43.234;27.896;2022-08-06T04:05:48;11.40;;;7.00;;
43429;SDS011;29028;43.234;27.896;2022-08-06T04:06:12;9.70;;;7.13;;
43429;SDS011;29028;43.234;27.896;2022-08-06T04:06:33;8.75;;;6.75;;
43429;SDS011;29028;43.234;27.896;2022-08-06T04:06:55;12.27;;;6.97;;
43429;SDS011;29028;43.234;27.896;2022-08-06T04:07:18;11.45;;;7.00;;
43429;SDS011;29028;43.234;27.896;2022-08-06T04:07:39;10.70;;;7.55;;
43429;SDS011;29028;43.234;27.896;2022-08-06T04:08:02;11.20;;;7.20;;
43429;SDS011;29028;43.234;27.896;2022-08-06T04:08:25;9.23;;;6.50;;
43429;SDS011;29028;43.234;27.896;2022-08-06T04:08:46;8.85;;;7.05;;
43429;SDS011;29028;43.234;27.896;2022-08-06T04:09:08;10.82;;;7.47;;
43429;SDS011;29028;43.234;27.896;2022-08-06T04:09:32;9.05;;;7.00;;
43429;SDS011;29028;43.234;27.896;2022-08-06T04:09:53;9.45;;;7.10;;
43429;SDS011;29028;43.234;27.896;2022-08-06T04:10:15;9.80;;;7.38;;
43429;SDS011;29028;43.234;27.896;2022-08-06T04:10:38;10.88;;;7.20;;
43429;SDS011;29028;43.234;27.896;2022-08-06T04:11:01;14.40;;;7.80;;
43429;SDS011;29028;43.234;27.896;2022-08-06T04:11:24;13.48;;;7.93;;
43429;SDS011;29028;43.234;27.896;2022-08-06T04:11:46;10.18;;;7.95;;
43429;SDS011;29028;43.234;27.896;2022-08-06T04:12:07;10.30;;;7.80;;
43429;SDS011;29028;43.234;27.896;2022-08-06T04:12:29;10.02;;;7.82;;
43429;SDS011;29028;43.234;27.896;2022-08-06T04:12:51;11.63;;;8.30;;
43429;SDS011;29028;43.234;27.896;2022-08-06T04:13:15;11.20;;;8.10;;
43429;SDS011;29028;43.234;27.896;2022-08-06T04:13:37;12.10;;;7.53;;
43429;SDS011;29028;43.234;27.896;2022-08-06T04:13:59;11.05;;;7.55;;
43429;SDS011;29028;43.234;27.896;2022-08-06T04:14:22;12.90;;;7.75;;
43429;SDS011;29028;43.234;27.896;2022-08-06T04:14:44;10.95;;;7.20;;
43429;SDS011;29028;43.234;27.896;2022-08-06T04:15:05;8.98;;;7.00;;
43429;SDS011;29028;43.234;27.896;2022-08-06T04:15:27;9.25;;;7.60;;
43429;SDS011;29028;43.234;27.896;2022-08-06T04:15:49;11.02;;;8.23;;
43429;SDS011;29028;43.234;27.896;2022-08-06T04:16:12;10.60;;;7.75;;
43429;SDS011;29028;43.234;27.896;2022-08-06T04:16:34;10.85;;;7.45;;
43429;SDS011;29028;43.234;27.896;2022-08-06T04:16:56;9.45;;;7.03;;
43429;SDS011;29028;43.234;27.896;2022-08-06T04:17:19;7.60;;;6.72;;
43429;SDS011;29028;43.234;27.896;2022-08-06T04:17:42;9.57;;;7.00;;
43429;SDS011;29028;43.234;27.896;2022-08-06T04:18:07;10.38;;;6.70;;
43429;SDS011;29028;43.234;27.896;2022-08-06T04:18:32;10.77;;;7.07;;
43429;SDS011;29028;43.234;27.896;2022-08-06T04:18:54;10.85;;;7.03;;
43429;SDS011;29028;43.234;27.896;2022-08-06T04:19:16;10.30;;;7.25;;
43429;SDS011;29028;43.234;27.896;2022-08-06T04:19:39;9.23;;;7.50;;
43429;SDS011;29028;43.234;27.896;2022-08-06T04:20:01;9.50;;;7.45;;
43429;SDS011;29028;43.234;27.896;2022-08-06T04:20:22;8.82;;;7.05;;
43429;SDS011;29028;43.234;27.896;2022-08-06T04:20:50;9.65;;;7.57;;
43429;SDS011;29028;43.234;27.896;2022-08-06T04:21:14;10.43;;;7.30;;
43429;SDS011;29028;43.234;27.896;2022-08-06T04:21:39;10.80;;;7.35;;
43429;SDS011;29028;43.234;27.896;2022-08-06T04:22:00;10.98;;;7.45;;
43429;SDS011;29028;43.234;27.896;2022-08-06T04:22:22;9.55;;;7.20;;
43429;SDS011;29028;43.234;27.896;2022-08-06T04:22:43;10.77;;;7.32;;
43429;SDS011;29028;43.234;27.896;2022-08-06T04:23:04;12.07;;;7.90;;
43429;SDS011;29028;43.234;27.896;2022-08-06T04:23:25;10.00;;;7.65;;
43429;SDS011;29028;43.234;27.896;2022-08-06T04:23:46;11.25;;;7.63;;
43429;SDS011;29028;43.234;27.896;2022-08-06T04:24:08;9.95;;;7.78;;
43429;SDS011;29028;43.234;27.896;2022-08-06T04:24:30;9.48;;;6.80;;
43429;SDS011;29028;43.234;27.896;2022-08-06T04:24:51;11.98;;;7.57;;
43429;SDS011;29028;43.234;27.896;2022-08-06T04:25:12;13.10;;;8.80;;
43429;SDS011;29028;43.234;27.896;2022-08-06T04:25:34;9.80;;;7.60;;
43429;SDS011;29028;43.234;27.896;2022-08-06T04:26:01;13.07;;;8.38;;
43429;SDS011;29028;43.234;27.896;2022-08-06T04:26:24;10.90;;;7.70;;
43429;SDS011;29028;43.234;27.896;2022-08-06T04:26:48;11.10;;;7.90;;
43429;SDS011;29028;43.234;27.896;2022-08-06T04:27:13;11.13;;;7.88;;
43429;SDS011;29028;43.234;27.896;2022-08-06T04:27:35;11.52;;;7.30;;
43429;SDS011;29028;43.234;27.896;2022-08-06T04:27:58;11.68;;;7.43;;
43429;SDS011;29028;43.234;27.896;2022-08-06T04:28:20;10.07;;;7.13;;
43429;SDS011;29028;43.234;27.896;2022-08-06T04:28:43;11.38;;;6.95;;
43429;SDS011;29028;43.234;27.896;2022-08-06T04:29:09;9.73;;;7.47;;
43429;SDS011;29028;43.234;27.896;2022-08-06T04:29:35;9.75;;;7.45;;
43429;SDS011;29028;43.234;27.896;2022-08-06T04:29:58;9.07;;;7.43;;
43429;SDS011;29028;43.234;27.896;2022-08-06T04:30:20;11.13;;;7.53;;
43429;SDS011;29028;43.234;27.896;2022-08-06T04:30:42;11.43;;;7.82;;
43429;SDS011;29028;43.234;27.896;2022-08-06T04:31:06;12.18;;;7.07;;
43429;SDS011;29028;43.234;27.896;2022-08-06T04:31:29;9.27;;;6.50;;
43429;SDS011;29028;43.234;27.896;2022-08-06T04:31:51;8.52;;;6.90;;
43429;SDS011;29028;43.234;27.896;2022-08-06T04:32:13;8.18;;;7.18;;
43429;SDS011;29028;43.234;27.896;2022-08-06T04:32:37;11.35;;;7.88;;
43429;SDS011;29028;43.234;27.896;2022-08-06T04:33:00;12.25;;;7.95;;
43429;SDS011;29028;43.234;27.896;2022-08-06T04:33:23;13.38;;;8.43;;
43429;SDS011;29028;43.234;27.896;2022-08-06T04:33:45;11.30;;;7.63;;
43429;SDS011;29028;43.234;27.896;2022-08-06T04:34:08;10.82;;;8.02;;
43429;SDS011;29028;43.234;27.896;2022-08-06T04:34:31;10.60;;;7.80;;
43429;SDS011;29028;43.234;27.896;2022-08-06T04:34:53;10.20;;;7.30;;
43429;SDS011;29028;43.234;27.896;2022-08-06T04:35:16;11.73;;;8.77;;
43429;SDS011;29028;43.234;27.896;2022-08-06T04:35:39;11.85;;;8.50;;
43429;SDS011;29028;43.234;27.896;2022-08-06T04:36:02;11.02;;;8.18;;
43429;SDS011;29028;43.234;27.896;2022-08-06T04:36:25;9.80;;;7.10;;
43429;SDS011;29028;43.234;27.896;2022-08-06T04:36:47;10.43;;;7.13;;
43429;SDS011;29028;43.234;27.896;2022-08-06T04:37:09;18.50;;;7.68;;
43429;SDS011;29028;43.234;27.896;2022-08-06T04:37:32;14.13;;;8.10;;
43429;SDS011;29028;43.234;27.896;2022-08-06T04:37:54;12.77;;;8.10;;
43429;SDS011;29028;43.234;27.896;2022-08-06T04:38:17;10.73;;;7.57;;
43429;SDS011;29028;43.234;27.896;2022-08-06T04:38:40;11.30;;;7.32;;
43429;SDS011;29028;43.234;27.896;2022-08-06T04:39:03;10.35;;;6.80;;
43429;SDS011;29028;43.234;27.896;2022-08-06T04:39:24;11.07;;;7.32;;
43429;SDS011;29028;43.234;27.896;2022-08-06T04:39:46;10.60;;;6.85;;
43429;SDS011;29028;43.234;27.896;2022-08-06T04:40:09;10.52;;;6.97;;
43429;SDS011;29028;43.234;27.896;2022-08-06T04:40:32;8.05;;;6.80;;
43429;SDS011;29028;43.234;27.896;2022-08-06T04:40:53;9.75;;;6.78;;
43429;SDS011;29028;43.234;27.896;2022-08-06T04:41:14;12.60;;;8.10;;
43429;SDS011;29028;43.234;27.896;2022-08-06T04:41:36;12.32;;;8.35;;
43429;SDS011;29028;43.234;27.896;2022-08-06T04:41:57;12.02;;;8.32;;
43429;SDS011;29028;43.234;27.896;2022-08-06T04:42:19;11.60;;;8.13;;
43429;SDS011;29028;43.234;27.896;2022-08-06T04:42:40;11.10;;;7.72;;
43429;SDS011;29028;43.234;27.896;2022-08-06T04:43:02;11.95;;;8.38;;
43429;SDS011;29028;43.234;27.896;2022-08-06T04:43:24;10.85;;;8.90;;
43429;SDS011;29028;43.234;27.896;2022-08-06T04:43:47;9.00;;;7.85;;
43429;SDS011;29028;43.234;27.896;2022-08-06T04:44:08;8.88;;;7.63;;
43429;SDS011;29028;43.234;27.896;2022-08-06T04:44:30;8.43;;;7.47;;
43429;SDS011;29028;43.234;27.896;2022-08-06T04:44:52;8.18;;;7.38;;
43429;SDS011;29028;43.234;27.896;2022-08-06T04:45:13;10.43;;;8.15;;
43429;SDS011;29028;43.234;27.896;2022-08-06T04:45:37;13.57;;;9.98;;
43429;SDS011;29028;43.234;27.896;2022-08-06T04:45:59;13.00;;;10.32;;
43429;SDS011;29028;43.234;27.896;2022-08-06T04:46:22;10.32;;;7.85;;
43429;SDS011;29028;43.234;27.896;2022-08-06T04:46:44;14.02;;;9.50;;
43429;SDS011;29028;43.234;27.896;2022-08-06T04:47:08;16.20;;;10.25;;
43429;SDS011;29028;43.234;27.896;2022-08-06T04:47:30;13.75;;;10.10;;
43429;SDS011;29028;43.234;27.896;2022-08-06T04:47:52;10.20;;;8.77;;
43429;SDS011;29028;43.234;27.896;2022-08-06T04:48:16;10.48;;;8.23;;
43429;SDS011;29028;43.234;27.896;2022-08-06T04:48:38;13.15;;;9.75;;
43429;SDS011;29028;43.234;27.896;2022-08-06T04:49:00;15.40;;;10.07;;
43429;SDS011;29028;43.234;27.896;2022-08-06T04:49:21;13.57;;;9.52;;
43429;SDS011;29028;43.234;27.896;2022-08-06T04:49:42;14.07;;;10.98;;
43429;SDS011;29028;43.234;27.896;2022-08-06T04:50:04;15.30;;;10.15;;
43429;SDS011;29028;43.234;27.896;2022-08-06T04:50:25;18.23;;;11.90;;
43429;SDS011;29028;43.234;27.896;2022-08-06T04:50:46;18.40;;;13.80;;
43429;SDS011;29028;43.234;27.896;2022-08-06T04:51:08;14.18;;;11.18;;
43429;SDS011;29028;43.234;27.896;2022-08-06T04:51:30;13.57;;;10.02;;
43429;SDS011;29028;43.234;27.896;2022-08-06T04:51:51;16.88;;;11.60;;
43429;SDS011;29028;43.234;27.896;2022-08-06T04:52:19;12.38;;;10.40;;
43429;SDS011;29028;43.234;27.896;2022-08-06T04:52:41;12.70;;;9.90;;
43429;SDS011;29028;43.234;27.896;2022-08-06T04:53:04;12.55;;;8.57;;
43429;SDS011;29028;43.234;27.896;2022-08-06T04:53:26;11.90;;;9.32;;
43429;SDS011;29028;43.234;27.896;2022-08-06T04:53:47;10.60;;;8.52;;
43429;SDS011;29028;43.234;27.896;2022-08-06T04:54:08;9.73;;;7.82;;
43429;SDS011;29028;43.234;27.896;2022-08-06T04:54:29;9.73;;;8.50;;
43429;SDS011;29028;43.234;27.896;2022-08-06T04:54:51;9.68;;;8.63;;
43429;SDS011;29028;43.234;27.896;2022-08-06T04:55:12;9.77;;;8.45;;
43429;SDS011;29028;43.234;27.896;2022-08-06T04:55:33;9.25;;;7.88;;
43429;SDS011;29028;43.234;27.896;2022-08-06T04:55:55;11.15;;;7.82;;
43429;SDS011;29028;43.234;27.896;2022-08-06T04:56:16;12.73;;;7.60;;
43429;SDS011;29028;43.234;27.896;2022-08-06T04:56:38;11.90;;;8.65;;
43429;SDS011;29028;43.234;27.896;2022-08-06T04:56:59;12.77;;;8.65;;
43429;SDS011;29028;43.234;27.896;2022-08-06T04:57:20;11.00;;;7.13;;
43429;SDS011;29028;43.234;27.896;2022-08-06T04:57:41;9.13;;;7.07;;
43429;SDS011;29028;43.234;27.896;2022-08-06T04:58:03;9.63;;;7.47;;
43429;SDS011;29028;43.234;27.896;2022-08-06T04:58:26;10.18;;;7.30;;
43429;SDS011;29028;43.234;27.896;2022-08-06T04:58:47;9.27;;;7.47;;
43429;SDS011;29028;43.234;27.896;2022-08-06T04:59:08;8.70;;;6.93;;
43429;SDS011;29028;43.234;27.896;2022-08-06T04:59:31;8.63;;;6.85;;
43429;SDS011;29028;43.234;27.896;2022-08-06T04:59:52;8.50;;;6.70;;
43429;SDS011;29028;43.234;27.896;2022-08-06T05:00:13;8.47;;;6.30;;
43429;SDS011;29028;43.234;27.896;2022-08-06T05:00:35;6.82;;;6.10;;
43429;SDS011;29028;43.234;27.896;2022-08-06T05:00:58;8.10;;;6.28;;
43429;SDS011;29028;43.234;27.896;2022-08-06T05:01:20;8.30;;;6.25;;
43429;SDS011;29028;43.234;27.896;2022-08-06T05:01:41;7.20;;;6.10;;
43429;SDS011;29028;43.234;27.896;2022-08-06T05:02:02;6.75;;;6.00;;
43429;SDS011;29028;43.234;27.896;2022-08-06T05:02:23;7.80;;;6.22;;
43429;SDS011;29028;43.234;27.896;2022-08-06T05:02:44;8.55;;;6.40;;
43429;SDS011;29028;43.234;27.896;2022-08-06T05:03:06;7.82;;;6.40;;
43429;SDS011;29028;43.234;27.896;2022-08-06T05:03:29;6.88;;;6.00;;
43429;SDS011;29028;43.234;27.896;2022-08-06T05:03:50;7.47;;;6.00;;
43429;SDS011;29028;43.234;27.896;2022-08-06T05:04:12;6.95;;;5.80;;
43429;SDS011;29028;43.234;27.896;2022-08-06T05:04:33;8.10;;;5.90;;
43429;SDS011;29028;43.234;27.896;2022-08-06T05:04:55;7.50;;;5.88;;
43429;SDS011;29028;43.234;27.896;2022-08-06T05:05:17;7.35;;;5.80;;
43429;SDS011;29028;43.234;27.896;2022-08-06T05:05:43;8.88;;;6.22;;
43429;SDS011;29028;43.234;27.896;2022-08-06T05:06:10;9.40;;;6.40;;
43429;SDS011;29028;43.234;27.896;2022-08-06T05:06:54;8.38;;;6.13;;
43429;SDS011;29028;43.234;27.896;2022-08-06T05:07:21;7.70;;;5.75;;
43429;SDS011;29028;43.234;27.896;2022-08-06T05:07:45;7.70;;;6.15;;
43429;SDS011;29028;43.234;27.896;2022-08-06T05:08:08;8.45;;;6.43;;
43429;SDS011;29028;43.234;27.896;2022-08-06T05:08:30;8.75;;;6.30;;
43429;SDS011;29028;43.234;27.896;2022-08-06T05:08:53;7.72;;;6.50;;
43429;SDS011;29028;43.234;27.896;2022-08-06T05:09:19;8.67;;;6.47;;
43429;SDS011;29028;43.234;27.896;2022-08-06T05:09:42;7.53;;;6.05;;
43429;SDS011;29028;43.234;27.896;2022-08-06T05:10:05;6.85;;;5.95;;
43429;SDS011;29028;43.234;27.896;2022-08-06T05:10:29;7.20;;;6.05;;
43429;SDS011;29028;43.234;27.896;2022-08-06T05:10:56;8.43;;;5.97;;
43429;SDS011;29028;43.234;27.896;2022-08-06T05:11:22;6.90;;;6.20;;
43429;SDS011;29028;43.234;27.896;2022-08-06T05:11:46;8.20;;;6.30;;
43429;SDS011;29028;43.234;27.896;2022-08-06T05:12:13;8.10;;;6.07;;
43429;SDS011;29028;43.234;27.896;2022-08-06T05:12:41;8.02;;;6.22;;
43429;SDS011;29028;43.234;27.896;2022-08-06T05:13:05;8.57;;;6.40;;
43429;SDS011;29028;43.234;27.896;2022-08-06T05:13:32;9.63;;;5.90;;
43429;SDS011;29028;43.234;27.896;2022-08-06T05:13:58;8.23;;;6.03;;
43429;SDS011;29028;43.234;27.896;2022-08-06T05:14:27;8.20;;;5.78;;
43429;SDS011;29028;43.234;27.896;2022-08-06T05:14:51;6.60;;;5.80;;
43429;SDS011;29028;43.234;27.896;2022-08-06T05:15:16;6.60;;;5.50;;
43429;SDS011;29028;43.234;27.896;2022-08-06T05:15:43;7.10;;;5.75;;
43429;SDS011;29028;43.234;27.896;2022-08-06T05:16:09;7.90;;;5.65;;
43429;SDS011;29028;43.234;27.896;2022-08-06T05:16:34;7.95;;;6.25;;
43429;SDS011;29028;43.234;27.896;2022-08-06T05:16:58;7.70;;;6.18;;
43429;SDS011;29028;43.234;27.896;2022-08-06T05:17:22;7.80;;;6.03;;
43429;SDS011;29028;43.234;27.896;2022-08-06T05:17:46;7.53;;;6.15;;
43429;SDS011;29028;43.234;27.896;2022-08-06T05:18:12;8.20;;;6.15;;
43429;SDS011;29028;43.234;27.896;2022-08-06T05:18:43;6.57;;;5.70;;
43429;SDS011;29028;43.234;27.896;2022-08-06T05:19:09;7.22;;;6.00;;
43429;SDS011;29028;43.234;27.896;2022-08-06T05:19:36;7.15;;;6.20;;
43429;SDS011;29028;43.234;27.896;2022-08-06T05:20:04;6.78;;;6.05;;
43429;SDS011;29028;43.234;27.896;2022-08-06T05:20:32;8.10;;;6.00;;
43429;SDS011;29028;43.234;27.896;2022-08-06T05:20:55;6.80;;;5.80;;
43429;SDS011;29028;43.234;27.896;2022-08-06T05:21:23;6.60;;;5.90;;
43429;SDS011;29028;43.234;27.896;2022-08-06T05:21:50;7.32;;;5.80;;
43429;SDS011;29028;43.234;27.896;2022-08-06T05:22:14;8.02;;;6.10;;
43429;SDS011;29028;43.234;27.896;2022-08-06T05:22:38;6.72;;;6.00;;
43429;SDS011;29028;43.234;27.896;2022-08-06T05:23:02;8.98;;;5.63;;
43429;SDS011;29028;43.234;27.896;2022-08-06T05:23:29;7.28;;;5.75;;
43429;SDS011;29028;43.234;27.896;2022-08-06T05:23:55;8.02;;;6.00;;
43429;SDS011;29028;43.234;27.896;2022-08-06T05:24:17;8.82;;;6.25;;
43429;SDS011;29028;43.234;27.896;2022-08-06T05:24:40;6.68;;;5.97;;
43429;SDS011;29028;43.234;27.896;2022-08-06T05:25:03;6.47;;;5.88;;
43429;SDS011;29028;43.234;27.896;2022-08-06T05:25:25;7.57;;;6.13;;
43429;SDS011;29028;43.234;27.896;2022-08-06T05:25:47;6.93;;;6.22;;
43429;SDS011;29028;43.234;27.896;2022-08-06T05:26:09;6.90;;;6.20;;
43429;SDS011;29028;43.234;27.896;2022-08-06T05:26:32;7.65;;;6.35;;
43429;SDS011;29028;43.234;27.896;2022-08-06T05:26:54;7.78;;;6.13;;
43429;SDS011;29028;43.234;27.896;2022-08-06T05:27:15;7.05;;;5.85;;
43429;SDS011;29028;43.234;27.896;2022-08-06T05:27:36;6.57;;;5.93;;
43429;SDS011;29028;43.234;27.896;2022-08-06T05:27:59;7.20;;;6.18;;
43429;SDS011;29028;43.234;27.896;2022-08-06T05:28:21;7.57;;;6.10;;
43429;SDS011;29028;43.234;27.896;2022-08-06T05:28:42;9.23;;;6.75;;
43429;SDS011;29028;43.234;27.896;2022-08-06T05:29:03;7.47;;;6.60;;
43429;SDS011;29028;43.234;27.896;2022-08-06T05:29:25;7.00;;;6.25;;
43429;SDS011;29028;43.234;27.896;2022-08-06T05:29:46;7.80;;;5.97;;
43429;SDS011;29028;43.234;27.896;2022-08-06T05:30:08;7.28;;;6.13;;
43429;SDS011;29028;43.234;27.896;2022-08-06T05:30:29;7.28;;;5.78;;
43429;SDS011;29028;43.234;27.896;2022-08-06T05:30:51;7.28;;;5.93;;
43429;SDS011;29028;43.234;27.896;2022-08-06T05:31:13;8.15;;;6.25;;
43429;SDS011;29028;43.234;27.896;2022-08-06T05:31:34;7.32;;;6.00;;
43429;SDS011;29028;43.234;27.896;2022-08-06T05:31:57;6.35;;;5.75;;
43429;SDS011;29028;43.234;27.896;2022-08-06T05:32:21;6.95;;;5.97;;
43429;SDS011;29028;43.234;27.896;2022-08-06T05:32:43;7.60;;;6.30;;
43429;SDS011;29028;43.234;27.896;2022-08-06T05:33:04;7.53;;;6.10;;
43429;SDS011;29028;43.234;27.896;2022-08-06T05:33:26;9.35;;;6.20;;
43429;SDS011;29028;43.234;27.896;2022-08-06T05:33:50;9.40;;;6.40;;
43429;SDS011;29028;43.234;27.896;2022-08-06T05:34:12;9.23;;;6.22;;
43429;SDS011;29028;43.234;27.896;2022-08-06T05:34:33;6.95;;;6.22;;
43429;SDS011;29028;43.234;27.896;2022-08-06T05:34:54;6.72;;;6.03;;
43429;SDS011;29028;43.234;27.896;2022-08-06T05:35:15;9.40;;;5.95;;
43429;SDS011;29028;43.234;27.896;2022-08-06T05:35:37;10.15;;;5.93;;
43429;SDS011;29028;43.234;27.896;2022-08-06T05:35:58;8.15;;;6.00;;
43429;SDS011;29028;43.234;27.896;2022-08-06T05:36:20;8.35;;;5.78;;
43429;SDS011;29028;43.234;27.896;2022-08-06T05:36:41;6.82;;;5.70;;
43429;SDS011;29028;43.234;27.896;2022-08-06T05:37:03;7.22;;;6.07;;
43429;SDS011;29028;43.234;27.896;2022-08-06T05:37:24;9.30;;;6.20;;
43429;SDS011;29028;43.234;27.896;2022-08-06T05:37:45;9.55;;;6.40;;
43429;SDS011;29028;43.234;27.896;2022-08-06T05:38:06;7.05;;;5.88;;
43429;SDS011;29028;43.234;27.896;2022-08-06T05:38:27;7.65;;;6.00;;
43429;SDS011;29028;43.234;27.896;2022-08-06T05:38:50;7.65;;;6.60;;
43429;SDS011;29028;43.234;27.896;2022-08-06T05:39:11;7.80;;;6.40;;
43429;SDS011;29028;43.234;27.896;2022-08-06T05:39:32;6.75;;;6.10;;
43429;SDS011;29028;43.234;27.896;2022-08-06T05:39:52;7.78;;;6.20;;
43429;SDS011;29028;43.234;27.896;2022-08-06T05:40:14;7.93;;;6.47;;
43429;SDS011;29028;43.234;27.896;2022-08-06T05:40:35;8.02;;;6.20;;
43429;SDS011;29028;43.234;27.896;2022-08-06T05:40:56;6.60;;;5.82;;
43429;SDS011;29028;43.234;27.896;2022-08-06T05:41:19;7.72;;;6.10;;
43429;SDS011;29028;43.234;27.896;2022-08-06T05:41:44;8.05;;;6.22;;
43429;SDS011;29028;43.234;27.896;2022-08-06T05:42:05;7.10;;;6.40;;
43429;SDS011;29028;43.234;27.896;2022-08-06T05:42:26;8.10;;;6.43;;
43429;SDS011;29028;43.234;27.896;2022-08-06T05:42:47;8.07;;;5.93;;
43429;SDS011;29028;43.234;27.896;2022-08-06T05:43:08;7.85;;;6.00;;
43429;SDS011;29028;43.234;27.896;2022-08-06T05:43:30;6.60;;;5.93;;
43429;SDS011;29028;43.234;27.896;2022-08-06T05:43:51;7.60;;;6.05;;
43429;SDS011;29028;43.234;27.896;2022-08-06T05:44:12;7.50;;;5.93;;
43429;SDS011;29028;43.234;27.896;2022-08-06T05:44:34;7.15;;;6.28;;
43429;SDS011;29028;43.234;27.896;2022-08-06T05:44:55;10.18;;;7.68;;
43429;SDS011;29028;43.234;27.896;2022-08-06T05:45:16;12.63;;;7.85;;
43429;SDS011;29028;43.234;27.896;2022-08-06T05:45:39;14.13;;;8.40;;
43429;SDS011;29028;43.234;27.896;2022-08-06T05:46:04;14.73;;;9.13;;
43429;SDS011;29028;43.234;27.896;2022-08-06T05:46:32;13.88;;;9.60;;
43429;SDS011;29028;43.234;27.896;2022-08-06T05:46:55;11.38;;;9.18;;
43429;SDS011;29028;43.234;27.896;2022-08-06T05:47:23;13.77;;;8.95;;
43429;SDS011;29028;43.234;27.896;2022-08-06T05:47:47;13.45;;;8.98;;
43429;SDS011;29028;43.234;27.896;2022-08-06T05:48:08;13.68;;;9.18;;
43429;SDS011;29028;43.234;27.896;2022-08-06T05:48:34;12.63;;;10.10;;
43429;SDS011;29028;43.234;27.896;2022-08-06T05:49:00;11.35;;;8.85;;
43429;SDS011;29028;43.234;27.896;2022-08-06T05:49:26;11.20;;;8.57;;
43429;SDS011;29028;43.234;27.896;2022-08-06T05:49:50;10.87;;;8.57;;
43429;SDS011;29028;43.234;27.896;2022-08-06T05:50:17;11.32;;;9.13;;
43429;SDS011;29028;43.234;27.896;2022-08-06T05:50:44;14.10;;;9.48;;
43429;SDS011;29028;43.234;27.896;2022-08-06T05:51:10;16.92;;;9.63;;
43429;SDS011;29028;43.234;27.896;2022-08-06T05:51:38;13.63;;;9.82;;
43429;SDS011;29028;43.234;27.896;2022-08-06T05:52:05;17.55;;;9.02;;
43429;SDS011;29028;43.234;27.896;2022-08-06T05:52:35;11.73;;;8.45;;
43429;SDS011;29028;43.234;27.896;2022-08-06T05:52:59;14.82;;;9.38;;
43429;SDS011;29028;43.234;27.896;2022-08-06T05:53:26;18.63;;;9.75;;
43429;SDS011;29028;43.234;27.896;2022-08-06T05:53:52;15.07;;;9.77;;
43429;SDS011;29028;43.234;27.896;2022-08-06T05:54:21;14.38;;;9.95;;
43429;SDS011;29028;43.234;27.896;2022-08-06T05:54:48;12.07;;;8.60;;
43429;SDS011;29028;43.234;27.896;2022-08-06T05:55:14;12.70;;;9.43;;
43429;SDS011;29028;43.234;27.896;2022-08-06T05:55:41;13.57;;;9.05;;
43429;SDS011;29028;43.234;27.896;2022-08-06T05:56:06;11.70;;;8.55;;
43429;SDS011;29028;43.234;27.896;2022-08-06T05:56:33;13.07;;;9.10;;
43429;SDS011;29028;43.234;27.896;2022-08-06T05:56:58;12.38;;;8.68;;
43429;SDS011;29028;43.234;27.896;2022-08-06T05:57:27;12.30;;;8.43;;
43429;SDS011;29028;43.234;27.896;2022-08-06T05:57:53;12.63;;;8.02;;
43429;SDS011;29028;43.234;27.896;2022-08-06T05:58:19;12.02;;;7.93;;
43429;SDS011;29028;43.234;27.896;2022-08-06T05:58:45;12.40;;;8.40;;
43429;SDS011;29028;43.234;27.896;2022-08-06T05:59:12;13.50;;;9.10;;
43429;SDS011;29028;43.234;27.896;2022-08-06T05:59:41;12.27;;;8.95;;
43429;SDS011;29028;43.234;27.896;2022-08-06T06:00:09;11.55;;;8.93;;
43429;SDS011;29028;43.234;27.896;2022-08-06T06:00:33;11.45;;;9.10;;
43429;SDS011;29028;43.234;27.896;2022-08-06T06:00:56;11.88;;;9.10;;
43429;SDS011;29028;43.234;27.896;2022-08-06T06:01:21;11.02;;;8.75;;
43429;SDS011;29028;43.234;27.896;2022-08-06T06:01:45;11.82;;;8.90;;
43429;SDS011;29028;43.234;27.896;2022-08-06T06:02:06;11.48;;;9.00;;
43429;SDS011;29028;43.234;27.896;2022-08-06T06:02:29;13.85;;;9.00;;
43429;SDS011;29028;43.234;27.896;2022-08-06T06:02:52;10.80;;;8.87;;
43429;SDS011;29028;43.234;27.896;2022-08-06T06:03:16;14.10;;;8.18;;
43429;SDS011;29028;43.234;27.896;2022-08-06T06:03:39;12.32;;;8.40;;
43429;SDS011;29028;43.234;27.896;2022-08-06T06:04:03;10.10;;;7.95;;
43429;SDS011;29028;43.234;27.896;2022-08-06T06:04:25;9.70;;;8.13;;
43429;SDS011;29028;43.234;27.896;2022-08-06T06:04:47;12.00;;;8.38;;
43429;SDS011;29028;43.234;27.896;2022-08-06T06:05:09;12.02;;;8.68;;
43429;SDS011;29028;43.234;27.896;2022-08-06T06:05:31;13.70;;;8.93;;
43429;SDS011;29028;43.234;27.896;2022-08-06T06:05:53;11.47;;;8.63;;
43429;SDS011;29028;43.234;27.896;2022-08-06T06:06:16;11.65;;;8.60;;
43429;SDS011;29028;43.234;27.896;2022-08-06T06:06:37;11.43;;;8.48;;
43429;SDS011;29028;43.234;27.896;2022-08-06T06:07:00;10.50;;;8.38;;
43429;SDS011;29028;43.234;27.896;2022-08-06T06:07:21;10.23;;;8.20;;
43429;SDS011;29028;43.234;27.896;2022-08-06T06:07:43;13.25;;;8.73;;
43429;SDS011;29028;43.234;27.896;2022-08-06T06:08:04;13.30;;;8.07;;
43429;SDS011;29028;43.234;27.896;2022-08-06T06:08:28;10.02;;;8.15;;
43429;SDS011;29028;43.234;27.896;2022-08-06T06:08:50;10.65;;;8.02;;
43429;SDS011;29028;43.234;27.896;2022-08-06T06:09:11;10.43;;;8.13;;
43429;SDS011;29028;43.234;27.896;2022-08-06T06:09:33;12.38;;;7.97;;
43429;SDS011;29028;43.234;27.896;2022-08-06T06:09:57;12.50;;;8.15;;
43429;SDS011;29028;43.234;27.896;2022-08-06T06:10:19;10.93;;;7.75;;
43429;SDS011;29028;43.234;27.896;2022-08-06T06:10:42;11.85;;;7.80;;
43429;SDS011;29028;43.234;27.896;2022-08-06T06:11:06;11.95;;;7.43;;
43429;SDS011;29028;43.234;27.896;2022-08-06T06:11:28;12.48;;;8.10;;
43429;SDS011;29028;43.234;27.896;2022-08-06T06:11:52;12.50;;;8.15;;
43429;SDS011;29028;43.234;27.896;2022-08-06T06:12:13;11.18;;;8.18;;
43429;SDS011;29028;43.234;27.896;2022-08-06T06:12:36;10.38;;;7.65;;
43429;SDS011;29028;43.234;27.896;2022-08-06T06:12:58;10.68;;;7.25;;
43429;SDS011;29028;43.234;27.896;2022-08-06T06:13:20;9.52;;;7.60;;
43429;SDS011;29028;43.234;27.896;2022-08-06T06:13:42;9.95;;;7.15;;
43429;SDS011;29028;43.234;27.896;2022-08-06T06:14:06;11.10;;;7.45;;
43429;SDS011;29028;43.234;27.896;2022-08-06T06:14:37;9.05;;;7.38;;
43429;SDS011;29028;43.234;27.896;2022-08-06T06:15:01;9.63;;;7.90;;
43429;SDS011;29028;43.234;27.896;2022-08-06T06:15:23;11.13;;;7.82;;
43429;SDS011;29028;43.234;27.896;2022-08-06T06:15:47;11.88;;;6.85;;
43429;SDS011;29028;43.234;27.896;2022-08-06T06:16:19;12.00;;;7.28;;
43429;SDS011;29028;43.234;27.896;2022-08-06T06:16:46;10.75;;;7.47;;
43429;SDS011;29028;43.234;27.896;2022-08-06T06:17:23;10.13;;;7.20;;
43429;SDS011;29028;43.234;27.896;2022-08-06T06:17:57;10.93;;;7.20;;
43429;SDS011;29028;43.234;27.896;2022-08-06T06:18:28;9.45;;;7.80;;
43429;SDS011;29028;43.234;27.896;2022-08-06T06:18:59;8.90;;;7.72;;
43429;SDS011;29028;43.234;27.896;2022-08-06T06:19:46;10.48;;;8.45;;
43429;SDS011;29028;43.234;27.896;2022-08-06T06:20:16;10.82;;;8.05;;